Time;durP1;ratioP1;P1;durP2;ratioP2;P2;SDS_P1;SDS_P2;PMS_P1;PMS_P2;Temp;Humidity;BMP_temperature;BMP_pressure;BME280_temperature;BME280_humidity;BME280_pressure;Samples;Min_cycle;Max_cycle;Signal;HPM_P1;HPM_P2
2022/07/01 00:00:17;;;;;;;12.83;6.85;;;;;;;22.28;100.00;100233.19;739861;1155;114625;-72
2022/07/01 00:15:36;;;;;;;12.25;8.58;;;;;;;21.68;100.00;100324.17;740251;1153;115543;-72
2022/07/01 00:30:39;;;;;;;19.80;7.68;;;;;;;22.16;100.00;100318.52;740566;1155;116322;-71
2022/07/01 00:45:48;;;;;;;12.23;8.00;;;;;;;22.33;100.00;100326.89;740168;1155;115829;-70
2022/07/01 01:00:50;;;;;;;12.93;8.07;;;;;;;22.64;100.00;100424.23;740139;1153;115175;-71
2022/07/01 01:15:53;;;;;;;9.78;7.58;;;;;;;22.68;100.00;100329.20;740079;1153;116000;-70
2022/07/01 01:30:55;;;;;;;10.50;8.43;;;;;;;22.72;100.00;100284.95;740062;1155;114549;-71
2022/07/01 01:45:59;;;;;;;9.80;7.97;;;;;;;22.61;100.00;100210.81;740046;1154;114975;-71
2022/07/01 02:01:02;;;;;;;12.78;8.40;;;;;;;22.44;100.00;100202.50;740110;1155;114653;-71
2022/07/01 02:16:05;;;;;;;15.00;8.25;;;;;;;22.48;100.00;100186.85;740285;1155;116092;-71
2022/07/01 02:31:07;;;;;;;11.40;8.13;;;;;;;22.43;100.00;100171.45;739728;1153;114524;-71
2022/07/01 02:46:09;;;;;;;13.10;8.93;;;;;;;22.43;100.00;100179.47;739761;1155;115305;-71
2022/07/01 03:01:11;;;;;;;12.45;9.30;;;;;;;22.34;100.00;100143.33;740212;1154;115029;-70
2022/07/01 03:16:14;;;;;;;11.98;9.25;;;;;;;22.40;100.00;100191.41;739921;1153;115512;-70
2022/07/01 03:31:17;;;;;;;11.65;8.05;;;;;;;22.68;100.00;100187.51;740208;1153;115487;-71
2022/07/01 03:46:19;;;;;;;13.73;8.48;;;;;;;22.58;100.00;100163.11;739765;1153;116020;-72
2022/07/01 04:01:21;;;;;;;20.10;8.40;;;;;;;22.70;100.00;100153.37;739920;1155;115419;-71
2022/07/01 04:16:25;;;;;;;8.73;7.78;;;;;;;23.40;100.00;100179.06;739740;1153;116484;-72
2022/07/01 04:31:28;;;;;;;10.05;7.80;;;;;;;23.96;100.00;100173.69;740478;1153;116045;-72
2022/07/01 04:46:30;;;;;;;10.43;8.45;;;;;;;24.15;100.00;100173.63;740599;1154;116275;-71
2022/07/01 05:01:33;;;;;;;13.63;9.63;;;;;;;24.31;100.00;100164.95;740388;1155;114979;-72
2022/07/01 05:16:35;;;;;;;14.15;10.33;;;;;;;24.51;100.00;100163.84;740125;1155;116108;-71
2022/07/01 05:31:38;;;;;;;13.40;10.03;;;;;;;25.01;100.00;100160.75;740281;1154;115244;-72
2022/07/01 05:46:41;;;;;;;11.90;10.15;;;;;;;25.38;100.00;100168.55;740022;1153;115734;-71
2022/07/01 06:01:45;;;;;;;14.30;11.05;;;;;;;26.43;100.00;100161.39;740257;1153;116167;-72
2022/07/01 06:16:48;;;;;;;15.33;11.13;;;;;;;27.31;100.00;100167.02;740808;1155;114813;-71
2022/07/01 06:31:50;;;;;;;13.48;12.05;;;;;;;27.53;100.00;100160.84;740513;1155;115708;-80
2022/07/01 06:46:52;;;;;;;15.15;11.33;;;;;;;27.78;100.00;100164.91;740420;1155;115247;-75
2022/07/01 07:01:55;;;;;;;13.40;11.40;;;;;;;28.06;100.00;100140.44;740734;1154;115520;-72
2022/07/01 07:16:58;;;;;;;18.28;12.35;;;;;;;28.76;100.00;100145.06;741444;1153;115839;-73
2022/07/01 07:32:00;;;;;;;14.60;12.58;;;;;;;29.85;100.00;100159.88;740656;1155;115698;-72
2022/07/01 07:47:03;;;;;;;15.53;12.63;;;;;;;30.67;100.00;100154.57;740610;1154;116212;-72
2022/07/01 08:02:05;;;;;;;13.17;11.73;;;;;;;31.55;96.64;100153.51;740188;1155;115908;-72
2022/07/01 08:17:08;;;;;;;12.25;11.03;;;;;;;32.24;94.36;100154.45;739731;1155;115411;-73
2022/07/01 08:32:10;;;;;;;12.40;11.08;;;;;;;33.00;89.42;100135.03;741578;1155;115468;-73
2022/07/01 08:47:14;;;;;;;11.68;10.30;;;;;;;33.86;87.76;100123.34;740492;1155;115351;-71
2022/07/01 09:02:16;;;;;;;9.95;9.00;;;;;;;34.61;85.25;100129.73;741691;1155;116416;-75
2022/07/01 09:17:20;;;;;;;8.97;8.13;;;;;;;35.40;83.24;100132.60;740768;1155;115598;-72
2022/07/01 09:32:23;;;;;;;10.00;8.63;;;;;;;35.38;78.23;100118.45;740808;1155;115142;-72
2022/07/01 09:47:27;;;;;;;9.80;8.70;;;;;;;36.15;78.10;100116.69;740742;1153;115896;-72
2022/07/01 10:02:33;;;;;;;9.03;8.13;;;;;;;36.12;74.66;100111.84;740256;1154;114584;-71
2022/07/01 10:17:41;;;;;;;10.25;8.15;;;;;;;36.51;72.29;100095.88;740421;1153;115278;-71
2022/07/01 10:32:48;;;;;;;8.75;7.95;;;;;;;36.81;71.05;100088.75;740964;1155;115322;-72
2022/07/01 10:48:31;;;;;;;9.27;7.37;;;;;;;37.15;68.66;100087.22;740070;1155;114976;-72
2022/07/01 11:03:39;;;;;;;9.20;7.77;;;;;;;37.39;65.49;100080.52;740229;1153;115905;-72
2022/07/01 11:18:42;;;;;;;17.45;8.85;;;;;;;37.53;65.21;100086.63;740207;1155;115542;-70
2022/07/01 11:33:50;;;;;;;9.70;7.48;;;;;;;38.02;64.20;100085.64;740699;1155;115637;-72
2022/07/01 11:48:53;;;;;;;12.08;8.30;;;;;;;37.92;64.95;100073.13;740160;1153;114430;-74
2022/07/01 12:03:59;;;;;;;9.73;8.50;;;;;;;38.00;64.21;100076.94;740209;1155;115796;-73
2022/07/01 12:19:02;;;;;;;10.08;8.33;;;;;;;37.87;63.10;100057.66;740424;1155;114947;-74
2022/07/01 12:34:04;;;;;;;9.80;8.45;;;;;;;38.21;62.30;100045.02;740388;1153;114802;-76
2022/07/01 12:49:06;;;;;;;8.43;7.65;;;;;;;38.84;62.19;100038.14;740638;1154;116005;-72
2022/07/01 13:04:09;;;;;;;9.50;7.83;;;;;;;38.57;62.06;100038.27;740634;1155;114342;-72
2022/07/01 13:19:11;;;;;;;9.85;8.25;;;;;;;38.03;62.15;100021.56;740744;1155;114301;-71
2022/07/01 13:34:14;;;;;;;8.85;7.70;;;;;;;38.54;60.84;99995.11;740290;1154;114952;-74
2022/07/01 13:49:17;;;;;;;8.18;7.38;;;;;;;39.35;60.95;99989.55;740747;1155;114116;-74
2022/07/01 14:04:19;;;;;;;8.55;7.55;;;;;;;38.96;59.55;99964.20;740152;1154;115543;-75
2022/07/01 14:19:22;;;;;;;8.70;7.73;;;;;;;38.64;58.66;99954.77;740645;1155;114124;-74
2022/07/01 14:34:25;;;;;;;10.37;6.97;;;;;;;38.68;58.12;99955.69;740578;1153;114171;-74
2022/07/01 14:49:28;;;;;;;9.13;6.45;;;;;;;38.84;58.68;99955.92;740952;1153;114850;-72
2022/07/01 15:04:31;;;;;;;7.30;6.48;;;;;;;38.20;59.28;99955.78;740808;1153;115667;-72
2022/07/01 15:19:34;;;;;;;8.88;7.05;;;;;;;36.50;60.06;99942.13;740669;1155;114168;-76
2022/07/01 15:34:36;;;;;;;8.98;6.85;;;;;;;35.88;62.61;99938.36;739816;1155;115460;-75
2022/07/01 15:49:39;;;;;;;8.28;7.13;;;;;;;35.36;63.94;99957.11;740181;1155;114436;-75
2022/07/01 16:04:47;;;;;;;7.03;6.30;;;;;;;34.06;68.07;99942.64;740100;1155;115264;-76
2022/07/01 16:19:53;;;;;;;8.33;6.65;;;;;;;32.70;71.10;99946.90;740076;1155;114104;-76
2022/07/01 16:34:56;;;;;;;8.63;6.70;;;;;;;31.97;73.68;99919.78;739921;1155;115367;-74
2022/07/01 16:50:06;;;;;;;8.98;7.40;;;;;;;31.67;75.09;99897.33;740334;1154;115391;-74
2022/07/01 17:05:10;;;;;;;8.88;6.78;;;;;;;30.82;77.59;99896.55;740199;1155;115435;-73
2022/07/01 17:20:15;;;;;;;9.50;7.28;;;;;;;30.74;79.08;99904.44;739948;1153;115459;-73
2022/07/01 17:35:18;;;;;;;12.75;7.93;;;;;;;30.63;79.61;99930.75;739933;1153;115365;-74
2022/07/01 17:50:25;;;;;;;17.93;12.30;;;;;;;30.30;80.64;99971.71;740456;1153;114327;-76
2022/07/01 18:05:32;;;;;;;9.25;7.45;;;;;;;29.62;79.50;100086.31;740318;1153;115923;-76
2022/07/01 18:20:41;;;;;;;7.10;4.53;;;;;;;26.06;89.38;100354.28;740242;1155;115242;-75
2022/07/01 18:35:47;;;;;;;6.03;4.40;;;;;;;23.90;100.00;100383.50;740410;1154;115841;-76
2022/07/01 18:50:53;;;;;;;6.93;5.08;;;;;;;23.87;100.00;100258.03;740416;1155;114843;-77
2022/07/01 19:05:55;;;;;;;7.70;4.60;;;;;;;23.65;100.00;100217.50;740118;1153;115773;-76
2022/07/01 19:20:58;;;;;;;10.07;4.47;;;;;;;23.60;100.00;100130.64;740661;1153;115070;-76
2022/07/01 19:36:01;;;;;;;6.73;4.63;;;;;;;23.96;100.00;100141.54;740221;1154;114609;-75
2022/07/01 19:51:03;;;;;;;5.73;4.17;;;;;;;23.68;100.00;100282.14;740415;1153;115855;-75
2022/07/01 20:06:06;;;;;;;13.63;6.05;;;;;;;23.81;100.00;100358.01;740982;1153;115784;-73
2022/07/01 20:21:08;;;;;;;9.80;6.20;;;;;;;23.76;100.00;100300.58;739902;1155;116137;-74
2022/07/01 20:36:10;;;;;;;5.10;4.48;;;;;;;23.67;100.00;100301.91;740362;1153;116040;-74
2022/07/01 20:51:13;;;;;;;6.03;4.00;;;;;;;23.55;100.00;100330.46;740186;1154;115292;-74
2022/07/01 21:06:16;;;;;;;3.50;2.90;;;;;;;23.23;100.00;100343.91;740157;1155;115444;-74
2022/07/01 21:21:18;;;;;;;4.45;3.33;;;;;;;22.59;100.00;100333.99;740071;1154;115258;-72
2022/07/01 21:36:20;;;;;;;3.63;3.25;;;;;;;22.80;100.00;100312.48;740103;1153;115497;-73
2022/07/01 21:51:24;;;;;;;4.77;3.50;;;;;;;22.82;100.00;100324.61;741428;1155;114413;-73
2022/07/01 22:21:31;;;;;;;4.98;3.60;;;;;;;22.65;100.00;100343.00;741798;1153;115241;-72
2022/07/01 22:36:34;;;;;;;4.40;3.55;;;;;;;22.68;100.00;100379.19;741515;1153;116089;-72
2022/07/01 22:52:02;;;;;;;8.33;5.43;;;;;;;22.50;100.00;100355.81;741681;1155;115350;-71
2022/07/01 23:07:18;;;;;;;7.75;6.30;;;;;;;22.57;100.00;100408.22;740756;1153;115155;-71
2022/07/01 23:22:21;;;;;;;11.57;7.57;;;;;;;22.53;100.00;100436.41;740083;1155;115590;-72
2022/07/01 23:37:27;;;;;;;11.43;8.40;;;;;;;22.51;100.00;100442.98;740209;1155;114637;-72
2022/07/01 23:52:29;;;;;;;12.90;9.65;;;;;;;22.56;100.00;100480.61;739780;1155;115614;-72
